createdAt,value
2022-09-16T00:01:31.096Z,9.91
2022-09-16T00:03:57.886Z,9.92
2022-09-16T00:06:26.786Z,9.93
2022-09-16T00:08:55.393Z,9.88
2022-09-16T00:11:22.379Z,9.89
2022-09-16T00:13:49.018Z,9.84
2022-09-16T00:16:25.438Z,9.80
2022-09-16T00:18:56.517Z,9.78
2022-09-16T00:21:22.840Z,9.81
2022-09-16T00:23:49.160Z,9.77
2022-09-16T00:26:15.930Z,9.73
2022-09-16T00:28:43.107Z,9.73
2022-09-16T00:31:09.854Z,9.69
2022-09-16T00:33:36.259Z,9.65
2022-09-16T00:36:11.079Z,9.68
2022-09-16T00:38:38.106Z,9.72
2022-09-16T00:41:06.005Z,9.76
2022-09-16T00:43:51.745Z,9.80
2022-09-16T00:46:26.043Z,9.86
2022-09-16T00:48:52.891Z,9.83
2022-09-16T00:51:20.976Z,9.88
2022-09-16T00:53:56.724Z,9.93
2022-09-16T00:56:26.818Z,9.98
2022-09-16T00:59:03.033Z,10.03
2022-09-16T01:01:31.171Z,10.04
2022-09-16T01:04:02.713Z,10.02
2022-09-16T01:06:30.841Z,10.08
2022-09-16T01:08:57.750Z,10.05
2022-09-16T01:11:24.921Z,10.05
2022-09-16T01:13:52.087Z,10.02
2022-09-16T01:16:32.614Z,10.07
2022-09-16T01:19:15.803Z,9.97
2022-09-16T01:22:10.741Z,9.94
2022-09-16T01:25:12.229Z,9.86
2022-09-16T01:28:04.245Z,9.76
2022-09-16T01:30:36.487Z,9.85
2022-09-16T01:33:06.513Z,9.86
2022-09-16T01:35:43.092Z,9.88
2022-09-16T01:38:34.160Z,9.81
2022-09-16T01:41:09.703Z,9.87
2022-09-16T01:43:55.678Z,9.80
2022-09-16T01:46:38.800Z,9.79
2022-09-16T01:49:08.194Z,9.78
2022-09-16T01:51:48.027Z,9.70
2022-09-16T01:54:26.793Z,9.71
2022-09-16T01:57:08.019Z,9.69
2022-09-16T01:59:42.455Z,9.66
2022-09-16T02:02:34.571Z,9.65
2022-09-16T02:05:05.908Z,9.58
2022-09-16T02:07:37.334Z,9.62
2022-09-16T02:10:58.290Z,9.58
2022-09-16T02:13:35.782Z,9.64
2022-09-16T02:16:08.073Z,9.60
2022-09-16T02:18:40.568Z,9.62
2022-09-16T02:21:11.329Z,9.57
2022-09-16T02:23:46.343Z,9.57
2022-09-16T02:26:17.759Z,9.58
2022-09-16T02:28:47.076Z,9.59
2022-09-16T02:31:14.559Z,9.56
2022-09-16T02:33:47.604Z,9.56
2022-09-16T02:36:19.670Z,9.57
2022-09-16T02:38:49.821Z,9.59
2022-09-16T02:41:16.315Z,9.66
2022-09-16T02:43:42.936Z,9.67
2022-09-16T02:46:11.609Z,9.68
2022-09-16T02:48:43.645Z,9.61
2022-09-16T02:51:54.480Z,9.63
2022-09-16T02:54:47.830Z,9.63
2022-09-16T02:57:14.505Z,9.62
2022-09-16T02:59:41.696Z,9.58
2022-09-16T03:02:08.244Z,9.55
2022-09-16T03:04:34.936Z,9.52
2022-09-16T03:07:04.713Z,9.56
2022-09-16T03:09:31.552Z,9.51
2022-09-16T03:12:20.812Z,9.50
2022-09-16T03:15:05.643Z,9.52
2022-09-16T03:17:55.910Z,9.54
2022-09-16T03:20:51.424Z,9.47
2022-09-16T03:23:32.044Z,9.48
2022-09-16T03:26:00.799Z,9.49
2022-09-16T03:28:32.246Z,9.51
2022-09-16T03:31:20.963Z,9.48
2022-09-16T03:33:47.274Z,9.49
2022-09-16T03:36:19.171Z,9.51
2022-09-16T03:38:46.561Z,9.52
2022-09-16T03:41:15.129Z,9.43
2022-09-16T03:43:52.654Z,9.41
2022-09-16T03:46:18.979Z,9.39
2022-09-16T03:48:45.308Z,9.34
2022-09-16T03:51:12.423Z,9.36
2022-09-16T03:53:38.704Z,9.35
2022-09-16T03:56:05.263Z,9.34
2022-09-16T03:58:31.639Z,9.28
2022-09-16T04:00:58.108Z,9.29
2022-09-16T04:03:24.660Z,9.36
2022-09-16T04:05:54.550Z,9.38
2022-09-16T04:08:21.115Z,9.32
2022-09-16T04:10:58.031Z,9.33
2022-09-16T04:13:24.368Z,9.38
2022-09-16T04:15:51.064Z,9.36
2022-09-16T04:18:18.400Z,9.31
2022-09-16T04:20:45.076Z,9.31
2022-09-16T04:23:11.683Z,9.28
2022-09-16T04:25:38.069Z,9.28
2022-09-16T04:28:04.342Z,9.30
2022-09-16T04:30:30.856Z,9.27
2022-09-16T04:32:57.327Z,9.27
2022-09-16T04:35:25.006Z,9.21
2022-09-16T04:37:52.757Z,9.18
2022-09-16T04:40:19.270Z,9.15
2022-09-16T04:42:50.286Z,9.10
2022-09-16T04:45:16.709Z,9.07
2022-09-16T04:47:43.433Z,9.12
2022-09-16T04:50:10.652Z,9.05
2022-09-16T04:52:37.278Z,9.01
2022-09-16T04:55:03.996Z,9.07
2022-09-16T04:57:32.348Z,9.03
2022-09-16T04:59:59.014Z,8.98
2022-09-16T05:02:25.359Z,9.01
2022-09-16T05:04:51.680Z,8.96
2022-09-16T05:07:17.979Z,9.00
2022-09-16T05:09:44.559Z,8.97
2022-09-16T05:12:10.943Z,9.01
2022-09-16T05:14:38.155Z,9.04
2022-09-16T05:17:04.420Z,9.08
2022-09-16T05:19:30.872Z,9.09
2022-09-16T05:21:57.166Z,9.08
2022-09-16T05:24:23.503Z,9.07
2022-09-16T05:26:49.798Z,9.16
2022-09-16T05:29:17.028Z,9.20
2022-09-16T05:31:47.152Z,9.24
2022-09-16T05:34:19.876Z,9.22
2022-09-16T05:36:47.661Z,9.18
2022-09-16T05:39:23.113Z,9.21
2022-09-16T05:41:54.194Z,9.23
2022-09-16T05:44:20.501Z,9.23
2022-09-16T05:46:46.790Z,9.21
2022-09-16T05:49:13.146Z,9.19
2022-09-16T05:51:41.239Z,9.19
2022-09-16T05:54:08.114Z,9.16
2022-09-16T05:56:34.771Z,9.17
2022-09-16T05:59:01.497Z,9.22
2022-09-16T06:01:31.012Z,9.31
2022-09-16T06:03:57.762Z,9.35
2022-09-16T06:06:25.350Z,9.48
2022-09-16T06:08:53.910Z,9.52
2022-09-16T06:11:20.577Z,9.51
2022-09-16T06:13:47.612Z,9.53
2022-09-16T06:16:16.882Z,9.50
2022-09-16T06:18:43.331Z,9.55
2022-09-16T06:21:11.624Z,9.55
2022-09-16T06:23:39.255Z,9.54
2022-09-16T06:26:14.515Z,9.58
2022-09-16T06:28:41.331Z,9.68
2022-09-16T06:31:13.391Z,9.74
2022-09-16T06:33:40.425Z,9.82
2022-09-16T06:36:15.284Z,9.89
2022-09-16T06:38:41.676Z,9.89
2022-09-16T06:41:10.119Z,9.99
2022-09-16T06:43:37.471Z,9.97
2022-09-16T06:46:18.643Z,10.09
2022-09-16T06:48:47.227Z,10.03
2022-09-16T06:51:24.947Z,10.12
2022-09-16T06:53:52.423Z,10.15
2022-09-16T06:56:21.628Z,10.23
2022-09-16T06:58:55.558Z,10.26
2022-09-16T07:01:24.451Z,10.32
2022-09-16T07:03:52.350Z,10.32
2022-09-16T07:06:20.620Z,10.45
2022-09-16T07:08:47.833Z,10.46
2022-09-16T07:11:17.322Z,10.52
2022-09-16T07:13:45.362Z,10.49
2022-09-16T07:16:14.888Z,10.59
2022-09-16T07:18:42.669Z,10.68
2022-09-16T07:21:14.842Z,10.75
2022-09-16T07:23:42.435Z,10.82
2022-09-16T07:26:14.953Z,10.86
2022-09-16T07:28:42.948Z,11.01
2022-09-16T07:31:16.098Z,11.16
2022-09-16T07:33:46.119Z,11.25
2022-09-16T07:36:14.776Z,11.36
2022-09-16T07:38:41.537Z,11.49
2022-09-16T07:41:14.462Z,11.38
2022-09-16T07:43:42.000Z,11.32
2022-09-16T07:46:13.189Z,11.19
2022-09-16T07:48:40.169Z,11.07
2022-09-16T07:51:09.399Z,11.08
2022-09-16T07:53:36.285Z,11.14
2022-09-16T07:56:08.546Z,11.10
2022-09-16T07:58:35.823Z,11.07
2022-09-16T08:01:04.878Z,11.27
2022-09-16T08:03:36.055Z,11.36
2022-09-16T08:06:05.778Z,11.45
2022-09-16T08:08:33.167Z,11.62
2022-09-16T08:11:00.823Z,11.50
2022-09-16T08:13:29.588Z,11.55
2022-09-16T08:16:00.641Z,11.70
2022-09-16T08:18:27.460Z,11.86
2022-09-16T08:20:53.868Z,11.97
2022-09-16T08:23:20.198Z,12.08
2022-09-16T08:25:47.042Z,12.29
2022-09-16T08:28:15.200Z,12.37
2022-09-16T08:30:42.476Z,12.54
2022-09-16T08:33:08.827Z,12.55
2022-09-16T08:35:35.746Z,12.62
2022-09-16T08:38:02.649Z,12.66
2022-09-16T08:40:34.264Z,12.51
2022-09-16T08:43:00.754Z,12.46
2022-09-16T08:45:31.974Z,12.20
2022-09-16T08:48:28.007Z,12.26
2022-09-16T08:50:58.742Z,12.36
2022-09-16T08:53:41.312Z,12.42
2022-09-16T08:56:13.836Z,12.55
2022-09-16T08:58:43.563Z,12.82
2022-09-16T09:01:36.346Z,12.73
2022-09-16T09:04:03.618Z,12.53
2022-09-16T09:06:38.859Z,12.31
2022-09-16T09:09:24.664Z,12.05
2022-09-16T09:12:02.944Z,11.84
2022-09-16T09:14:42.627Z,11.80
2022-09-16T09:17:48.011Z,11.74
2022-09-16T09:20:36.108Z,11.75
2022-09-16T09:23:16.813Z,11.99
2022-09-16T09:25:55.879Z,12.26
2022-09-16T09:28:31.256Z,12.72
2022-09-16T09:31:25.271Z,12.69
2022-09-16T09:34:06.206Z,12.66
2022-09-16T09:36:38.271Z,12.61
2022-09-16T09:39:50.787Z,12.85
2022-09-16T09:42:28.182Z,13.18
2022-09-16T09:45:12.132Z,13.31
2022-09-16T09:48:01.745Z,13.59
2022-09-16T09:50:44.387Z,13.65
2022-09-16T09:53:23.749Z,13.68
2022-09-16T09:55:58.246Z,13.70
2022-09-16T09:58:41.258Z,14.13
2022-09-16T10:01:09.047Z,14.47
2022-09-16T10:03:36.989Z,14.23
2022-09-16T10:06:03.805Z,14.30
2022-09-16T10:08:43.516Z,14.28
2022-09-16T10:11:19.677Z,14.16
2022-09-16T10:13:55.393Z,14.16
2022-09-16T10:16:24.813Z,13.95
2022-09-16T10:19:05.555Z,14.18
2022-09-16T10:21:45.948Z,14.42
2022-09-16T10:24:32.212Z,14.42
2022-09-16T10:27:00.329Z,14.30
2022-09-16T10:29:27.222Z,14.33
2022-09-16T10:31:54.472Z,14.30
2022-09-16T10:34:33.550Z,14.36
2022-09-16T10:37:01.248Z,14.41
2022-09-16T10:39:29.758Z,14.37
2022-09-16T10:41:56.630Z,14.43
2022-09-16T10:44:32.173Z,14.63
2022-09-16T10:46:58.478Z,14.75
2022-09-16T10:49:52.659Z,14.76
2022-09-16T10:52:25.635Z,14.22
2022-09-16T10:54:52.911Z,14.04
2022-09-16T10:57:31.116Z,14.09
2022-09-16T11:00:09.103Z,14.38
2022-09-16T11:03:00.720Z,14.33
2022-09-16T11:05:52.060Z,14.43
2022-09-16T11:08:49.905Z,14.66
2022-09-16T11:11:35.197Z,14.76
2022-09-16T11:14:21.795Z,14.80
2022-09-16T11:17:03.132Z,14.94
2022-09-16T11:19:45.172Z,14.56
2022-09-16T11:22:57.827Z,14.01
2022-09-16T11:25:44.057Z,13.08
2022-09-16T11:28:37.098Z,13.09
2022-09-16T11:31:21.939Z,13.03
2022-09-16T11:33:59.707Z,13.01
2022-09-16T11:36:52.968Z,13.14
2022-09-16T11:39:44.504Z,13.07
2022-09-16T11:42:25.293Z,12.72
2022-09-16T11:45:17.344Z,12.26
2022-09-16T11:48:19.814Z,11.97
2022-09-16T11:51:08.382Z,12.01
2022-09-16T11:53:46.756Z,12.24
2022-09-16T11:56:35.271Z,12.65
2022-09-16T11:59:44.574Z,13.14
2022-09-16T12:02:23.752Z,13.21
2022-09-16T12:04:57.814Z,13.38
2022-09-16T12:07:37.945Z,13.56
2022-09-16T12:10:13.915Z,13.84
2022-09-16T12:12:46.294Z,14.11
2022-09-16T12:15:26.018Z,14.01
2022-09-16T12:17:57.361Z,14.03
2022-09-16T12:20:33.190Z,13.91
2022-09-16T12:23:12.403Z,14.00
2022-09-16T12:25:46.789Z,13.81
2022-09-16T12:28:24.788Z,13.66
2022-09-16T12:31:09.185Z,13.24
2022-09-16T12:33:44.009Z,12.99
2022-09-16T12:36:20.392Z,12.56
2022-09-16T12:38:49.532Z,12.12
2022-09-16T12:41:44.021Z,12.12
2022-09-16T12:44:35.457Z,12.18
2022-09-16T12:47:16.629Z,12.16
2022-09-16T12:50:12.631Z,12.34
2022-09-16T12:53:05.978Z,12.62
2022-09-16T12:55:48.921Z,12.78
2022-09-16T12:58:39.914Z,13.02
2022-09-16T13:01:35.219Z,13.19
2022-09-16T13:04:13.654Z,13.14
2022-09-16T13:06:48.122Z,13.10
2022-09-16T13:09:25.652Z,12.84
2022-09-16T13:14:49.253Z,12.34
2022-09-16T13:17:26.979Z,12.35
2022-09-16T13:19:55.027Z,12.44
2022-09-16T13:22:30.633Z,12.42
2022-09-16T13:25:23.317Z,12.38
2022-09-16T13:28:00.241Z,12.27
2022-09-16T13:30:37.617Z,12.30
2022-09-16T13:33:09.802Z,12.32
2022-09-16T13:35:42.266Z,12.49
2022-09-16T13:38:23.102Z,12.56
2022-09-16T13:41:11.416Z,12.72
2022-09-16T13:43:46.775Z,12.54
2022-09-16T13:46:26.242Z,12.44
2022-09-16T13:49:20.540Z,12.22
2022-09-16T13:51:49.059Z,12.08
2022-09-16T13:54:19.087Z,12.02
2022-09-16T13:56:58.106Z,11.88
2022-09-16T13:59:52.623Z,11.67
2022-09-16T14:02:36.460Z,11.45
2022-09-16T14:05:05.484Z,11.41
2022-09-16T14:08:03.890Z,11.39
2022-09-16T14:10:54.657Z,11.35
2022-09-16T14:13:22.698Z,11.26
2022-09-16T14:15:52.160Z,11.09
2022-09-16T14:18:27.917Z,11.05
2022-09-16T14:21:02.754Z,10.94
2022-09-16T14:23:31.011Z,10.83
2022-09-16T14:25:57.847Z,10.71
2022-09-16T14:28:28.441Z,10.64
2022-09-16T14:31:00.210Z,10.57
2022-09-16T14:33:38.118Z,10.48
2022-09-16T14:36:32.616Z,10.35
2022-09-16T14:39:20.526Z,10.35
2022-09-16T14:41:53.202Z,10.26
2022-09-16T14:44:33.780Z,10.08
2022-09-16T14:47:29.431Z,10.04
2022-09-16T14:50:08.042Z,10.07
2022-09-16T14:52:35.498Z,9.98
2022-09-16T14:55:01.872Z,10.02
2022-09-16T14:57:30.096Z,10.01
2022-09-16T14:59:59.033Z,9.95
2022-09-16T15:02:31.810Z,9.90
2022-09-16T15:05:12.077Z,9.91
2022-09-16T15:07:56.291Z,10.01
2022-09-16T15:10:35.840Z,9.99
2022-09-16T15:13:18.283Z,10.03
2022-09-16T15:15:52.822Z,10.12
2022-09-16T15:18:28.813Z,10.04
2022-09-16T15:21:14.192Z,10.08
2022-09-16T15:23:42.274Z,10.14
2022-09-16T15:26:13.720Z,10.17
2022-09-16T15:29:04.389Z,10.22
2022-09-16T15:31:40.254Z,10.18
2022-09-16T15:34:18.864Z,10.15
2022-09-16T15:36:47.483Z,10.14
2022-09-16T15:39:26.477Z,10.13
2022-09-16T15:42:12.854Z,10.08
2022-09-16T15:44:58.602Z,10.18
2022-09-16T15:47:29.171Z,10.26
2022-09-16T15:50:04.037Z,10.26
2022-09-16T15:52:53.060Z,10.32
2022-09-16T15:55:33.816Z,10.54
2022-09-16T15:58:11.671Z,10.73
2022-09-16T16:00:59.151Z,10.80
2022-09-16T16:03:25.755Z,10.82
2022-09-16T16:05:53.808Z,10.81
2022-09-16T16:08:41.397Z,10.73
2022-09-16T16:11:12.844Z,10.78
2022-09-16T16:13:40.674Z,10.79
2022-09-16T16:16:08.282Z,10.84
2022-09-16T16:18:36.691Z,10.94
2022-09-16T16:21:08.682Z,11.06
2022-09-16T16:23:36.489Z,11.12
2022-09-16T16:26:04.684Z,11.16
2022-09-16T16:28:31.130Z,11.21
2022-09-16T16:31:12.264Z,11.23
2022-09-16T16:33:44.063Z,11.19
2022-09-16T16:36:15.993Z,11.26
2022-09-16T16:38:43.451Z,11.31
2022-09-16T16:41:11.945Z,11.29
2022-09-16T16:43:39.730Z,11.26
2022-09-16T16:46:06.159Z,11.30
2022-09-16T16:48:32.612Z,11.38
2022-09-16T16:51:07.907Z,11.39
2022-09-16T16:53:34.575Z,11.38
2022-09-16T16:56:05.964Z,11.42
2022-09-16T16:58:35.857Z,11.49
2022-09-16T17:01:13.849Z,11.53
2022-09-16T17:03:41.133Z,11.56
2022-09-16T17:06:08.383Z,11.57
2022-09-16T17:08:35.578Z,11.65
2022-09-16T17:11:14.828Z,11.71
2022-09-16T17:13:43.689Z,11.77
2022-09-16T17:16:12.091Z,11.79
2022-09-16T17:18:40.117Z,11.80
2022-09-16T17:21:27.754Z,11.83
2022-09-16T17:23:54.412Z,11.87
2022-09-16T17:26:21.294Z,11.93
2022-09-16T17:28:50.512Z,11.94
2022-09-16T17:31:24.315Z,11.97
2022-09-16T17:33:55.804Z,12.05
2022-09-16T17:36:24.181Z,12.06
2022-09-16T17:39:01.136Z,12.05
2022-09-16T17:41:28.209Z,12.10
2022-09-16T17:43:56.354Z,12.13
2022-09-16T17:46:25.086Z,12.09
2022-09-16T17:48:51.498Z,12.12
2022-09-16T17:51:18.004Z,12.19
2022-09-16T17:53:44.671Z,12.25
2022-09-16T17:56:13.635Z,12.15
2022-09-16T17:58:42.146Z,12.13
2022-09-16T18:01:14.629Z,12.16
2022-09-16T18:03:42.903Z,12.12
2022-09-16T18:06:24.623Z,12.03
2022-09-16T18:08:52.035Z,12.07
2022-09-16T18:11:20.833Z,12.01
2022-09-16T18:13:48.165Z,11.99
2022-09-16T18:16:17.607Z,12.02
2022-09-16T18:18:45.120Z,12.05
2022-09-16T18:21:15.008Z,12.07
2022-09-16T18:23:42.011Z,12.07
2022-09-16T18:26:14.238Z,12.04
2022-09-16T18:29:08.481Z,11.98
2022-09-16T18:31:33.127Z,11.92
2022-09-16T18:33:59.402Z,11.95
2022-09-16T18:36:27.411Z,11.92
2022-09-16T18:38:55.060Z,11.85
2022-09-16T18:41:40.886Z,11.82
2022-09-16T18:44:12.131Z,11.85
2022-09-16T18:46:39.295Z,11.83
2022-09-16T18:49:06.663Z,11.89
2022-09-16T18:51:36.129Z,11.88
2022-09-16T18:54:05.801Z,11.89
2022-09-16T18:56:34.015Z,11.88
2022-09-16T18:59:21.695Z,11.84
2022-09-16T19:01:51.157Z,11.80
2022-09-16T19:04:20.258Z,11.81
2022-09-16T19:06:49.015Z,11.79
2022-09-16T19:09:18.179Z,11.77
2022-09-16T19:11:44.494Z,11.77
2022-09-16T19:14:15.335Z,11.78
2022-09-16T19:16:44.533Z,11.84
2022-09-16T19:19:13.502Z,11.83
2022-09-16T19:21:40.860Z,11.83
2022-09-16T19:24:13.722Z,11.81
2022-09-16T19:26:41.635Z,11.76
2022-09-16T19:29:08.863Z,11.78
2022-09-16T19:31:37.577Z,11.74
2022-09-16T19:34:04.707Z,11.73
2022-09-16T19:36:32.439Z,11.65
2022-09-16T19:38:59.885Z,11.66
2022-09-16T19:41:29.357Z,11.63
2022-09-16T19:44:02.212Z,11.61
2022-09-16T19:46:31.778Z,11.61
2022-09-16T19:48:58.152Z,11.61
2022-09-16T19:51:25.345Z,11.55
2022-09-16T19:53:53.086Z,11.58
2022-09-16T19:56:22.375Z,11.54
2022-09-16T19:58:50.190Z,11.52
2022-09-16T20:01:19.803Z,11.57
2022-09-16T20:03:49.176Z,11.56
2022-09-16T20:06:21.442Z,11.50
2022-09-16T20:08:51.837Z,11.51
2022-09-16T20:11:20.590Z,11.53
2022-09-16T20:13:57.513Z,11.53
2022-09-16T20:16:26.301Z,11.48
2022-09-16T20:18:52.968Z,11.47
2022-09-16T20:21:23.292Z,11.43
2022-09-16T20:23:50.555Z,11.37
2022-09-16T20:26:19.641Z,11.29
2022-09-16T20:28:51.187Z,11.20
2022-09-16T20:31:24.738Z,11.22
2022-09-16T20:33:51.583Z,11.18
2022-09-16T20:36:20.070Z,11.10
2022-09-16T20:38:46.885Z,11.07
2022-09-16T20:41:14.733Z,11.01
2022-09-16T20:43:41.822Z,10.99
2022-09-16T20:46:20.199Z,10.95
2022-09-16T20:48:46.774Z,10.92
2022-09-16T20:51:16.513Z,10.90
2022-09-16T20:53:43.718Z,10.85
2022-09-16T20:56:12.675Z,10.84
2022-09-16T20:58:39.196Z,10.87
2022-09-16T21:01:06.875Z,10.84
2022-09-16T21:03:34.131Z,10.84
2022-09-16T21:06:09.535Z,10.74
2022-09-16T21:08:39.733Z,10.70
2022-09-16T21:11:17.593Z,10.71
2022-09-16T21:13:45.987Z,10.64
2022-09-16T21:16:15.251Z,10.67
2022-09-16T21:18:42.306Z,10.68
2022-09-16T21:21:13.183Z,10.66
2022-09-16T21:23:40.389Z,10.62
2022-09-16T21:26:23.803Z,10.58
2022-09-16T21:28:56.890Z,10.55
2022-09-16T21:31:24.200Z,10.59
2022-09-16T21:33:51.837Z,10.60
2022-09-16T21:36:19.736Z,10.63
2022-09-16T21:38:46.764Z,10.64
2022-09-16T21:41:18.114Z,10.64
2022-09-16T21:43:49.377Z,10.57
2022-09-16T21:46:19.868Z,10.56
2022-09-16T21:48:48.030Z,10.60
2022-09-16T21:51:16.950Z,10.53
2022-09-16T21:53:44.077Z,10.55
2022-09-16T21:56:21.207Z,10.54
2022-09-16T21:58:49.259Z,10.51
2022-09-16T22:01:18.731Z,10.47
2022-09-16T22:04:02.303Z,10.45
2022-09-16T22:06:29.424Z,10.42
2022-09-16T22:08:58.794Z,10.45
2022-09-16T22:11:28.801Z,10.46
2022-09-16T22:13:56.290Z,10.44
2022-09-16T22:16:28.695Z,10.38
2022-09-16T22:18:56.470Z,10.44
2022-09-16T22:21:24.355Z,10.37
2022-09-16T22:23:50.907Z,10.31
2022-09-16T22:26:19.405Z,10.33
2022-09-16T22:28:45.835Z,10.36
2022-09-16T22:31:20.218Z,10.37
2022-09-16T22:33:47.945Z,10.45
2022-09-16T22:36:22.616Z,10.47
2022-09-16T22:38:54.211Z,10.45
2022-09-16T22:41:21.543Z,10.46
2022-09-16T22:43:49.628Z,10.46
2022-09-16T22:46:25.566Z,10.48
2022-09-16T22:48:54.197Z,10.51
2022-09-16T22:51:20.748Z,10.45
2022-09-16T22:53:48.323Z,10.42
2022-09-16T22:56:31.614Z,10.38
2022-09-16T22:58:59.160Z,10.39
2022-09-16T23:01:31.892Z,10.46
2022-09-16T23:04:00.766Z,10.40
2022-09-16T23:06:29.983Z,10.41
2022-09-16T23:08:56.703Z,10.46
2022-09-16T23:11:26.079Z,10.41
2022-09-16T23:13:55.457Z,10.40
2022-09-16T23:16:41.798Z,10.49
2022-09-16T23:19:10.782Z,10.53
2022-09-16T23:21:38.000Z,10.56
2022-09-16T23:24:06.675Z,10.58
2022-09-16T23:26:35.746Z,10.58
2022-09-16T23:29:04.993Z,10.64
2022-09-16T23:31:35.610Z,10.62
2022-09-16T23:34:07.296Z,10.69
2022-09-16T23:36:36.784Z,10.65
2022-09-16T23:39:05.709Z,10.61
2022-09-16T23:41:32.221Z,10.69
2022-09-16T23:43:58.594Z,10.70
2022-09-16T23:46:28.535Z,10.68
2022-09-16T23:48:55.415Z,10.72
2022-09-16T23:51:27.823Z,10.70
2022-09-16T23:53:55.764Z,10.77
2022-09-16T23:56:22.212Z,10.80
2022-09-16T23:58:49.732Z,10.77
